createdAt,value
2022-11-18T00:01:59.695Z,24.00
2022-11-18T00:07:07.424Z,23.30
2022-11-18T00:12:24.773Z,25.50
2022-11-18T00:17:30.379Z,24.52
2022-11-18T00:22:38.020Z,25.30
2022-11-18T00:27:43.016Z,25.40
2022-11-18T00:32:47.981Z,24.60
2022-11-18T00:37:55.555Z,23.67
2022-11-18T00:43:00.897Z,23.75
2022-11-18T00:48:05.967Z,25.00
2022-11-18T00:53:13.682Z,23.63
2022-11-18T00:58:18.802Z,23.80
2022-11-18T01:03:25.782Z,24.10
2022-11-18T01:08:33.442Z,24.67
2022-11-18T01:13:38.437Z,23.15
2022-11-18T01:18:43.487Z,24.45
2022-11-18T01:23:51.082Z,23.02
2022-11-18T01:28:58.548Z,23.23
2022-11-18T01:34:04.010Z,23.83
2022-11-18T01:39:11.900Z,22.58
2022-11-18T01:44:46.531Z,22.88
2022-11-18T01:49:51.650Z,21.63
2022-11-18T01:55:01.789Z,21.80
2022-11-18T02:00:12.693Z,22.38
2022-11-18T02:05:17.828Z,22.17
2022-11-18T02:10:27.955Z,24.10
2022-11-18T02:15:44.654Z,22.33
2022-11-18T02:20:51.486Z,21.42
2022-11-18T02:26:09.312Z,22.50
2022-11-18T02:31:20.697Z,22.77
2022-11-18T02:36:30.334Z,26.00
2022-11-18T02:41:37.509Z,23.35
2022-11-18T02:46:48.710Z,22.58
2022-11-18T02:51:53.937Z,22.88
2022-11-18T02:56:59.181Z,22.48
2022-11-18T03:02:06.977Z,23.65
2022-11-18T03:07:16.163Z,21.83
2022-11-18T03:12:27.102Z,22.92
2022-11-18T03:17:44.360Z,22.52
2022-11-18T03:23:02.860Z,22.75
2022-11-18T03:28:17.071Z,22.98
2022-11-18T03:33:28.421Z,22.98
2022-11-18T03:38:35.775Z,25.52
2022-11-18T03:43:43.343Z,24.73
2022-11-18T03:49:04.713Z,24.35
2022-11-18T03:54:12.576Z,25.25
2022-11-18T03:59:22.208Z,25.92
2022-11-18T04:04:30.346Z,26.42
2022-11-18T04:09:38.927Z,26.45
2022-11-18T04:14:45.750Z,24.38
2022-11-18T04:19:53.373Z,25.50
2022-11-18T04:24:58.469Z,25.38
2022-11-18T04:30:03.529Z,23.38
2022-11-18T04:35:12.069Z,23.45
2022-11-18T04:40:17.017Z,23.85
2022-11-18T04:45:22.095Z,23.30
2022-11-18T04:50:29.678Z,22.75
2022-11-18T04:55:34.706Z,22.92
2022-11-18T05:00:39.815Z,22.55
2022-11-18T05:05:47.404Z,22.30
2022-11-18T05:11:12.392Z,22.85
2022-11-18T05:16:17.393Z,24.00
2022-11-18T05:21:25.090Z,22.98
2022-11-18T05:26:30.322Z,21.67
2022-11-18T05:31:35.314Z,22.85
2022-11-18T05:36:42.920Z,22.75
2022-11-18T05:42:00.185Z,22.75
2022-11-18T05:47:05.172Z,22.17
2022-11-18T05:52:13.050Z,23.13
2022-11-18T05:57:18.030Z,22.15
2022-11-18T06:02:26.075Z,22.67
2022-11-18T06:07:38.148Z,21.27
2022-11-18T06:12:45.382Z,21.50
2022-11-18T06:17:52.402Z,22.58
2022-11-18T06:23:02.054Z,20.10
2022-11-18T06:28:07.340Z,22.33
2022-11-18T06:33:12.646Z,22.92
2022-11-18T06:38:20.203Z,23.55
2022-11-18T06:43:37.710Z,20.85
2022-11-18T06:48:42.655Z,21.63
2022-11-18T06:53:50.809Z,20.95
2022-11-18T06:59:00.116Z,20.48
2022-11-18T07:04:05.655Z,21.25
2022-11-18T07:09:13.372Z,19.30
2022-11-18T07:14:18.352Z,20.10
2022-11-18T07:19:23.383Z,20.90
2022-11-18T07:24:31.345Z,31.55
2022-11-18T07:29:36.355Z,35.92
2022-11-18T07:34:43.530Z,41.67
2022-11-18T07:39:53.709Z,29.88
2022-11-18T07:50:03.721Z,27.33
2022-11-18T07:55:12.232Z,26.98
2022-11-18T08:00:18.359Z,26.20
2022-11-18T08:05:23.506Z,26.20
2022-11-18T08:10:31.222Z,67.55
2022-11-18T08:15:36.150Z,40.05
2022-11-18T08:20:41.147Z,39.92
2022-11-18T08:25:49.129Z,43.15
2022-11-18T08:30:54.110Z,31.38
2022-11-18T08:35:59.143Z,31.23
2022-11-18T08:41:07.554Z,33.97
2022-11-18T08:46:12.587Z,35.40
2022-11-18T08:51:17.616Z,31.67
2022-11-18T08:56:26.484Z,24.35
2022-11-18T09:01:31.569Z,31.70
2022-11-18T09:06:38.639Z,33.30
2022-11-18T09:11:46.280Z,37.85
2022-11-18T09:16:54.921Z,30.77
2022-11-18T09:21:59.982Z,24.77
2022-11-18T09:27:15.190Z,30.92
2022-11-18T09:32:21.973Z,37.72
2022-11-18T09:37:27.352Z,31.80
2022-11-18T09:42:52.032Z,32.25
2022-11-18T09:48:00.622Z,31.80
2022-11-18T09:53:11.783Z,34.88
2022-11-18T09:58:21.935Z,28.83
2022-11-18T10:03:30.658Z,25.55
2022-11-18T10:08:40.216Z,24.80
2022-11-18T10:13:54.959Z,24.70
2022-11-18T10:19:06.175Z,27.17
2022-11-18T10:24:16.526Z,27.15
2022-11-18T10:29:24.495Z,24.35
2022-11-18T10:34:29.871Z,21.85
2022-11-18T10:39:35.346Z,20.70
2022-11-18T10:44:44.525Z,19.70
2022-11-18T10:49:49.502Z,20.75
2022-11-18T10:55:24.946Z,22.45
2022-11-18T11:00:46.757Z,21.02
2022-11-18T11:05:51.917Z,21.33
2022-11-18T11:10:58.666Z,18.95
2022-11-18T11:16:08.779Z,22.38
2022-11-18T11:21:15.589Z,16.73
2022-11-18T11:32:03.120Z,15.30
2022-11-18T11:37:17.392Z,28.38
2022-11-18T11:42:32.785Z,26.20
2022-11-18T11:47:50.810Z,23.63
2022-11-18T11:53:08.637Z,20.88
2022-11-18T11:58:32.859Z,24.63
2022-11-18T12:03:52.171Z,21.38
2022-11-18T12:09:08.193Z,20.70
2022-11-18T12:14:18.512Z,18.85
2022-11-18T12:19:27.002Z,18.75
2022-11-18T12:24:34.457Z,20.25
2022-11-18T12:29:45.340Z,19.10
2022-11-18T12:34:59.697Z,18.55
2022-11-18T12:40:04.882Z,18.38
2022-11-18T12:45:39.606Z,20.27
2022-11-18T12:50:54.931Z,20.92
2022-11-18T12:56:00.666Z,19.80
2022-11-18T13:01:11.073Z,35.40
2022-11-18T13:06:26.451Z,22.38
2022-11-18T13:11:48.333Z,15.65
2022-11-18T13:17:06.108Z,15.00
2022-11-18T13:22:33.549Z,15.65
2022-11-18T13:27:47.803Z,15.50
2022-11-18T13:33:01.941Z,20.63
2022-11-18T13:38:11.593Z,20.33
2022-11-18T13:43:16.649Z,13.70
2022-11-18T13:48:21.788Z,14.05
2022-11-18T13:53:33.998Z,12.25
2022-11-18T14:04:10.585Z,44.75
2022-11-18T14:09:28.795Z,11.20
2022-11-18T14:14:36.943Z,13.85
2022-11-18T14:19:43.017Z,19.58
2022-11-18T14:24:58.110Z,19.45
2022-11-18T14:30:03.088Z,14.68
2022-11-18T14:35:08.632Z,19.45
2022-11-18T14:40:19.993Z,28.92
2022-11-18T14:45:27.427Z,32.80
2022-11-18T14:50:32.412Z,33.80
2022-11-18T14:55:40.035Z,41.95
2022-11-18T15:00:45.865Z,55.67
2022-11-18T15:05:50.983Z,24.55
2022-11-18T15:11:00.258Z,24.35
2022-11-18T15:16:09.442Z,30.33
2022-11-18T15:21:14.957Z,29.45
2022-11-18T15:26:25.048Z,42.05
2022-11-18T15:31:30.016Z,30.40
2022-11-18T15:36:35.063Z,30.67
2022-11-18T15:41:44.114Z,26.38
2022-11-18T15:46:49.727Z,31.38
2022-11-18T15:51:54.728Z,43.30
2022-11-18T15:57:02.309Z,47.45
2022-11-18T16:02:07.360Z,44.15
2022-11-18T16:07:12.491Z,40.15
2022-11-18T16:12:32.613Z,33.13
2022-11-18T16:17:37.767Z,30.83
2022-11-18T16:22:42.793Z,30.13
2022-11-18T16:27:52.954Z,22.45
2022-11-18T16:32:58.066Z,18.70
2022-11-18T16:38:03.157Z,19.17
2022-11-18T16:43:10.926Z,15.07
2022-11-18T16:48:15.950Z,18.60
2022-11-18T16:53:22.090Z,16.85
2022-11-18T16:58:29.700Z,18.00
2022-11-18T17:03:36.892Z,17.63
2022-11-18T17:08:42.336Z,18.35
2022-11-18T17:13:53.332Z,19.15
2022-11-18T17:19:10.204Z,18.98
2022-11-18T17:24:18.453Z,21.35
2022-11-18T17:29:26.261Z,23.98
2022-11-18T17:34:31.375Z,20.27
2022-11-18T17:39:36.447Z,14.98
2022-11-18T17:44:44.142Z,16.30
2022-11-18T17:49:49.348Z,13.80
2022-11-18T17:54:54.809Z,18.90
2022-11-18T18:00:02.513Z,19.73
2022-11-18T18:05:09.797Z,16.73
2022-11-18T18:10:15.452Z,17.90
2022-11-18T18:15:23.342Z,17.00
2022-11-18T18:20:28.620Z,17.95
2022-11-18T18:25:33.646Z,17.02
2022-11-18T18:30:41.382Z,16.15
2022-11-18T18:35:46.622Z,15.07
2022-11-18T18:40:52.013Z,15.18
2022-11-18T18:46:16.256Z,14.90
2022-11-18T18:51:21.336Z,13.25
2022-11-18T18:56:26.346Z,12.82
2022-11-18T19:01:35.890Z,13.52
2022-11-18T19:06:51.990Z,7.17
2022-11-18T19:12:11.124Z,5.05
2022-11-18T19:17:19.067Z,3.70
2022-11-18T19:22:24.224Z,5.57
2022-11-18T19:27:29.440Z,3.08
2022-11-18T19:32:38.602Z,3.53
2022-11-18T19:37:43.901Z,3.20
2022-11-18T19:42:50.256Z,3.45
2022-11-18T19:47:57.794Z,4.35
2022-11-18T19:53:22.885Z,8.32
2022-11-18T19:58:28.141Z,8.88
2022-11-18T20:03:36.928Z,6.50
2022-11-18T20:08:42.996Z,4.60
2022-11-18T20:13:48.929Z,6.15
2022-11-18T20:18:58.705Z,6.63
2022-11-18T20:24:04.666Z,5.07
2022-11-18T20:29:10.394Z,5.15
2022-11-18T20:34:18.082Z,5.22
2022-11-18T20:39:23.313Z,4.90
2022-11-18T20:44:28.730Z,4.78
2022-11-18T20:49:39.105Z,5.10
2022-11-18T20:54:45.768Z,4.70
2022-11-18T20:59:50.841Z,5.13
2022-11-18T21:04:58.408Z,4.72
2022-11-18T21:10:03.526Z,4.15
2022-11-18T21:15:10.330Z,5.20
2022-11-18T21:20:30.203Z,5.50
2022-11-18T21:25:35.744Z,4.80
2022-11-18T21:30:41.107Z,5.13
2022-11-18T21:35:52.172Z,5.50
2022-11-18T21:40:57.288Z,5.30
2022-11-18T21:46:04.636Z,6.93
2022-11-18T21:51:14.790Z,6.88
2022-11-18T21:56:22.379Z,5.78
2022-11-18T22:01:29.234Z,6.47
2022-11-18T22:06:37.090Z,6.55
2022-11-18T22:11:42.080Z,8.02
2022-11-18T22:16:47.639Z,7.72
2022-11-18T22:21:55.467Z,7.22
2022-11-18T22:27:00.710Z,8.05
2022-11-18T22:32:05.785Z,7.38
2022-11-18T22:37:13.374Z,7.60
2022-11-18T22:42:30.658Z,7.93
2022-11-18T22:47:35.676Z,7.45
2022-11-18T22:52:43.450Z,7.75
2022-11-18T22:57:48.466Z,7.60
2022-11-18T23:02:53.507Z,7.72
2022-11-18T23:08:01.247Z,9.23
2022-11-18T23:13:18.612Z,8.30
2022-11-18T23:18:23.593Z,9.23
2022-11-18T23:23:31.382Z,9.77
2022-11-18T23:28:37.772Z,9.02
2022-11-18T23:33:43.365Z,8.98
2022-11-18T23:38:51.262Z,8.25
2022-11-18T23:43:56.211Z,9.02
2022-11-18T23:49:01.452Z,8.57
2022-11-18T23:54:09.344Z,8.25
2022-11-18T23:59:14.365Z,8.13
